createdAt,value
2023-02-18T00:01:29.638Z,12.47
2023-02-18T00:03:58.401Z,13.83
2023-02-18T00:09:17.738Z,15.77
2023-02-18T00:11:45.246Z,11.40
2023-02-18T00:14:15.904Z,16.37
2023-02-18T00:16:43.782Z,14.63
2023-02-18T00:19:13.710Z,18.00
2023-02-18T00:21:41.382Z,22.23
2023-02-18T00:24:09.378Z,21.40
2023-02-18T00:26:37.428Z,29.23
2023-02-18T00:29:05.261Z,18.63
2023-02-18T00:31:36.201Z,19.90
2023-02-18T00:34:04.942Z,21.87
2023-02-18T00:36:32.662Z,25.47
2023-02-18T00:41:58.672Z,25.60
2023-02-18T00:44:26.849Z,23.30
2023-02-18T00:46:55.578Z,23.90
2023-02-18T00:49:23.010Z,29.77
2023-02-18T00:51:50.437Z,30.60
2023-02-18T00:54:17.931Z,29.97
2023-02-18T00:59:33.718Z,33.93
2023-02-18T01:02:03.154Z,25.87
2023-02-18T01:04:30.720Z,34.63
2023-02-18T01:07:00.415Z,27.57
2023-02-18T01:09:28.630Z,28.63
2023-02-18T01:11:58.356Z,29.57
2023-02-18T01:14:25.799Z,28.53
2023-02-18T01:16:53.339Z,38.30
2023-02-18T01:19:22.358Z,28.10
2023-02-18T01:21:49.915Z,32.83
2023-02-18T01:27:05.420Z,35.73
2023-02-18T01:29:32.882Z,35.90
2023-02-18T01:32:00.510Z,36.67
2023-02-18T01:34:29.337Z,34.03
2023-02-18T01:37:20.785Z,33.00
2023-02-18T01:39:48.325Z,37.87
2023-02-18T01:42:20.212Z,34.20
2023-02-18T01:44:48.385Z,40.40
2023-02-18T01:47:16.969Z,36.60
2023-02-18T01:49:53.192Z,38.43
2023-02-18T01:52:24.810Z,39.77
2023-02-18T01:54:54.470Z,38.57
2023-02-18T01:57:24.116Z,39.17
2023-02-18T01:59:54.145Z,43.00
2023-02-18T02:05:25.070Z,40.17
2023-02-18T02:07:54.796Z,37.67
2023-02-18T02:10:22.420Z,46.70
2023-02-18T02:15:43.747Z,45.23
2023-02-18T02:21:52.426Z,46.27
2023-02-18T02:27:58.454Z,46.47
2023-02-18T02:30:43.435Z,46.27
2023-02-18T02:33:25.864Z,39.03
2023-02-18T02:35:58.493Z,41.43
2023-02-18T02:38:32.055Z,43.53
2023-02-18T02:41:09.837Z,41.87
2023-02-18T02:43:44.750Z,37.60
2023-02-18T02:46:14.411Z,40.73
2023-02-18T02:48:46.159Z,44.80
2023-02-18T02:51:18.921Z,45.77
2023-02-18T02:53:46.631Z,41.20
2023-02-18T02:56:18.752Z,39.37
2023-02-18T02:58:46.941Z,45.33
2023-02-18T03:04:17.966Z,50.00
2023-02-18T03:07:22.996Z,46.77
2023-02-18T03:10:07.384Z,43.43
2023-02-18T03:12:38.097Z,44.30
2023-02-18T03:15:10.049Z,47.90
2023-02-18T03:17:42.041Z,45.50
2023-02-18T03:22:59.408Z,48.93
2023-02-18T03:25:29.423Z,47.63
2023-02-18T03:27:59.278Z,42.30
2023-02-18T03:30:29.027Z,37.67
2023-02-18T03:32:59.687Z,41.70
2023-02-18T03:35:28.602Z,39.23
2023-02-18T03:38:00.987Z,36.87
2023-02-18T03:40:30.609Z,37.23
2023-02-18T03:42:59.660Z,34.13
2023-02-18T03:45:28.072Z,29.97
2023-02-18T03:47:55.515Z,29.80
2023-02-18T03:50:24.976Z,24.33
2023-02-18T03:52:52.449Z,24.90
2023-02-18T03:58:21.058Z,21.13
2023-02-18T04:00:48.569Z,18.97
2023-02-18T04:03:16.268Z,20.43
2023-02-18T04:05:43.892Z,20.00
2023-02-18T04:11:13.645Z,21.73
2023-02-18T04:13:42.475Z,20.80
2023-02-18T04:16:10.263Z,19.97
2023-02-18T04:21:40.656Z,21.40
2023-02-18T04:24:08.228Z,22.90
2023-02-18T04:26:36.679Z,18.50
2023-02-18T04:29:05.442Z,19.60
2023-02-18T04:31:32.944Z,19.97
2023-02-18T04:34:00.410Z,22.73
2023-02-18T04:39:26.700Z,24.53
2023-02-18T04:41:54.214Z,24.10
2023-02-18T04:44:23.043Z,29.37
2023-02-18T04:46:50.509Z,26.93
2023-02-18T04:52:20.665Z,38.30
2023-02-18T04:54:48.287Z,45.10
2023-02-18T04:57:15.855Z,39.73
2023-02-18T04:59:44.868Z,47.10
2023-02-18T05:02:12.301Z,43.53
2023-02-18T05:07:44.111Z,46.40
2023-02-18T05:13:13.833Z,45.23
2023-02-18T05:15:42.767Z,52.90
2023-02-18T05:21:11.892Z,42.37
2023-02-18T05:23:39.357Z,39.70
2023-02-18T05:29:09.685Z,46.70
2023-02-18T05:31:39.995Z,43.60
2023-02-18T05:34:07.506Z,41.97
2023-02-18T05:36:35.084Z,46.10
2023-02-18T05:39:02.513Z,41.23
2023-02-18T05:41:29.993Z,44.87
2023-02-18T05:44:14.804Z,44.90
2023-02-18T05:46:43.712Z,36.77
2023-02-18T05:49:12.437Z,35.23
2023-02-18T05:51:39.871Z,40.07
2023-02-18T05:57:09.977Z,33.27
2023-02-18T05:59:37.449Z,37.83
2023-02-18T06:02:09.344Z,34.53
2023-02-18T06:04:36.851Z,40.37
2023-02-18T06:10:02.815Z,34.77
2023-02-18T06:12:30.266Z,30.87
2023-02-18T06:14:57.804Z,32.23
2023-02-18T06:17:26.590Z,37.27
2023-02-18T06:19:54.293Z,32.90
2023-02-18T06:22:22.223Z,37.90
2023-02-18T06:27:38.703Z,35.90
2023-02-18T06:30:07.632Z,29.73
2023-02-18T06:32:35.482Z,30.07
2023-02-18T06:35:04.471Z,19.60
2023-02-18T06:40:30.810Z,16.77
2023-02-18T06:42:58.317Z,14.20
2023-02-18T06:45:25.885Z,14.40
2023-02-18T06:47:53.323Z,13.77
2023-02-18T06:50:22.257Z,10.93
2023-02-18T06:52:49.933Z,12.07
2023-02-18T06:55:17.667Z,11.00
2023-02-18T06:57:45.225Z,7.50
2023-02-18T07:00:13.385Z,6.13
2023-02-18T07:02:40.807Z,8.47
2023-02-18T07:05:08.554Z,10.40
2023-02-18T07:07:37.413Z,7.30
2023-02-18T07:10:05.827Z,8.07
2023-02-18T07:12:33.445Z,8.70
2023-02-18T07:15:00.864Z,7.67
2023-02-18T07:17:28.483Z,5.73
2023-02-18T07:23:00.268Z,7.17
2023-02-18T07:25:27.877Z,9.67
2023-02-18T07:27:55.382Z,8.07
2023-02-18T07:33:11.640Z,8.17
2023-02-18T07:35:39.063Z,8.13
2023-02-18T07:40:48.026Z,8.57
2023-02-18T07:43:15.443Z,9.57
2023-02-18T07:45:42.900Z,11.20
2023-02-18T07:48:10.378Z,7.30
2023-02-18T07:50:40.891Z,8.10
2023-02-18T07:53:08.768Z,6.73
2023-02-18T07:58:34.876Z,6.60
2023-02-18T08:04:00.776Z,6.73
2023-02-18T08:06:31.051Z,7.83
2023-02-18T08:08:58.503Z,6.97
2023-02-18T08:11:26.010Z,7.73
2023-02-18T08:16:57.102Z,7.50
2023-02-18T08:19:24.670Z,8.63
2023-02-18T08:21:52.096Z,8.07
2023-02-18T08:24:19.530Z,7.87
2023-02-18T08:29:59.774Z,9.07
2023-02-18T08:32:29.657Z,10.53
2023-02-18T08:34:57.140Z,10.33
2023-02-18T08:37:25.495Z,13.90
2023-02-18T08:42:59.705Z,8.87
2023-02-18T08:45:27.263Z,11.10
2023-02-18T08:48:17.158Z,11.07
2023-02-18T08:50:33.891Z,11.60
2023-02-18T08:55:49.742Z,8.97
2023-02-18T08:58:17.522Z,8.87
2023-02-18T09:00:45.665Z,8.60
2023-02-18T09:03:15.497Z,10.93
2023-02-18T09:05:43.200Z,8.20
2023-02-18T09:08:10.665Z,7.67
2023-02-18T09:10:39.339Z,7.80
2023-02-18T09:16:13.099Z,10.43
2023-02-18T09:18:42.295Z,10.20
2023-02-18T09:24:09.623Z,10.37
2023-02-18T09:26:37.647Z,10.67
2023-02-18T09:29:05.171Z,12.20
2023-02-18T09:31:33.124Z,7.03
2023-02-18T09:34:04.713Z,10.87
2023-02-18T09:36:32.942Z,12.70
2023-02-18T09:39:00.793Z,10.43
2023-02-18T09:44:41.746Z,10.47
2023-02-18T09:47:13.498Z,11.73
2023-02-18T09:49:45.396Z,10.33
2023-02-18T09:52:15.530Z,12.83
2023-02-18T09:54:43.011Z,12.43
2023-02-18T09:57:17.022Z,13.27
2023-02-18T09:59:45.210Z,16.50
2023-02-18T10:02:16.893Z,14.47
2023-02-18T10:04:50.799Z,13.83
2023-02-18T10:07:22.129Z,12.80
2023-02-18T10:09:49.792Z,13.10
2023-02-18T10:12:18.818Z,13.93
2023-02-18T10:14:51.725Z,10.83
2023-02-18T10:17:19.967Z,12.57
2023-02-18T10:19:50.161Z,13.93
2023-02-18T10:25:20.382Z,13.33
2023-02-18T10:27:48.981Z,11.00
2023-02-18T10:30:23.734Z,11.57
2023-02-18T10:32:53.258Z,10.53
2023-02-18T10:35:25.198Z,10.80
2023-02-18T10:38:01.474Z,9.70
2023-02-18T10:40:34.233Z,10.17
2023-02-18T10:46:06.122Z,9.93
2023-02-18T10:48:50.938Z,8.70
2023-02-18T10:51:22.390Z,7.60
2023-02-18T10:53:52.047Z,10.43
2023-02-18T10:56:38.630Z,10.50
2023-02-18T10:59:11.725Z,7.30
2023-02-18T11:01:39.382Z,9.93
2023-02-18T11:07:17.409Z,8.00
2023-02-18T11:09:49.434Z,8.90
2023-02-18T11:12:20.198Z,8.93
2023-02-18T11:14:50.469Z,9.00
2023-02-18T11:17:21.653Z,7.03
2023-02-18T11:19:57.526Z,9.47
2023-02-18T11:22:30.163Z,9.67
2023-02-18T11:24:59.014Z,12.77
2023-02-18T11:27:29.915Z,8.47
2023-02-18T11:30:02.520Z,11.20
2023-02-18T11:32:31.769Z,8.93
2023-02-18T11:34:59.256Z,8.37
2023-02-18T11:37:28.100Z,8.77
2023-02-18T11:39:56.835Z,9.93
2023-02-18T11:42:26.151Z,10.20
2023-02-18T11:44:55.419Z,9.17
2023-02-18T11:50:18.832Z,10.63
2023-02-18T11:52:48.893Z,7.53
2023-02-18T11:55:19.451Z,11.90
2023-02-18T11:57:50.178Z,8.20
2023-02-18T12:03:29.512Z,9.83
2023-02-18T12:05:58.372Z,8.77
2023-02-18T12:08:29.446Z,7.90
2023-02-18T12:11:01.137Z,9.43
2023-02-18T12:13:33.106Z,7.87
2023-02-18T12:16:09.472Z,8.97
2023-02-18T12:18:50.530Z,5.80
2023-02-18T12:24:30.902Z,6.23
2023-02-18T12:30:26.823Z,5.87
2023-02-18T12:33:01.974Z,5.87
2023-02-18T12:35:41.382Z,4.07
2023-02-18T12:41:27.865Z,5.03
2023-02-18T12:44:04.168Z,5.47
2023-02-18T12:46:34.429Z,3.23
2023-02-18T12:49:15.549Z,5.07
2023-02-18T12:51:53.514Z,4.90
2023-02-18T12:54:31.332Z,5.20
2023-02-18T13:00:09.256Z,7.23
2023-02-18T13:02:55.767Z,6.03
2023-02-18T13:05:30.575Z,4.87
2023-02-18T13:08:08.059Z,9.90
2023-02-18T13:10:45.665Z,5.00
2023-02-18T13:13:17.046Z,7.67
2023-02-18T13:15:50.949Z,8.00
2023-02-18T13:18:22.817Z,5.63
2023-02-18T13:20:52.330Z,6.70
2023-02-18T13:23:21.178Z,5.03
2023-02-18T13:25:52.017Z,9.63
2023-02-18T13:28:24.372Z,5.23
2023-02-18T13:31:03.453Z,4.13
2023-02-18T13:36:41.487Z,6.33
2023-02-18T13:39:11.323Z,5.40
2023-02-18T13:41:40.546Z,8.43
2023-02-18T13:44:10.325Z,5.50
2023-02-18T13:49:34.694Z,7.07
2023-02-18T13:52:02.927Z,5.80
2023-02-18T13:54:32.831Z,9.47
2023-02-18T13:57:03.147Z,7.07
2023-02-18T13:59:35.313Z,6.93
2023-02-18T14:02:22.165Z,7.43
2023-02-18T14:04:53.360Z,9.13
2023-02-18T14:10:30.037Z,9.97
2023-02-18T14:13:22.820Z,10.97
2023-02-18T14:16:00.054Z,18.17
2023-02-18T14:18:32.550Z,11.73
2023-02-18T14:23:57.314Z,10.73
2023-02-18T14:29:29.630Z,7.43
2023-02-18T14:31:58.652Z,10.33
2023-02-18T14:34:30.420Z,8.13
2023-02-18T14:37:11.348Z,11.17
2023-02-18T14:39:49.395Z,9.00
2023-02-18T14:45:26.950Z,9.47
2023-02-18T14:48:08.468Z,8.87
2023-02-18T14:50:38.309Z,7.17
2023-02-18T14:53:07.747Z,8.43
2023-02-18T14:55:39.220Z,12.77
2023-02-18T14:58:08.324Z,7.70
2023-02-18T15:03:34.168Z,11.53
2023-02-18T15:06:01.557Z,10.40
2023-02-18T15:08:38.050Z,9.23
2023-02-18T15:11:08.124Z,10.27
2023-02-18T15:13:37.583Z,9.23
2023-02-18T15:16:06.646Z,9.93
2023-02-18T15:18:36.329Z,8.43
2023-02-18T15:21:05.821Z,8.47
2023-02-18T15:23:36.956Z,6.97
2023-02-18T15:26:06.912Z,9.70
2023-02-18T15:31:31.904Z,9.57
2023-02-18T15:37:00.179Z,12.17
2023-02-18T15:39:27.990Z,10.20
2023-02-18T15:44:49.132Z,10.63
2023-02-18T15:47:18.335Z,8.43
2023-02-18T15:49:48.290Z,9.03
2023-02-18T15:55:21.213Z,12.33
2023-02-18T15:57:50.168Z,8.17
2023-02-18T16:00:22.117Z,10.77
2023-02-18T16:02:55.166Z,12.47
2023-02-18T16:05:26.470Z,12.50
2023-02-18T16:11:02.977Z,12.77
2023-02-18T16:13:31.355Z,10.03
2023-02-18T16:16:01.369Z,11.30
2023-02-18T16:18:31.456Z,8.17
2023-02-18T16:21:02.261Z,9.13
2023-02-18T16:23:36.831Z,12.13
2023-02-18T16:26:22.052Z,7.37
2023-02-18T16:31:53.133Z,12.57
2023-02-18T16:34:20.659Z,11.77
2023-02-18T16:37:02.066Z,12.73
2023-02-18T16:39:30.347Z,11.47
2023-02-18T16:41:57.763Z,6.33
2023-02-18T16:47:25.038Z,12.77
2023-02-18T16:49:52.523Z,11.83
2023-02-18T16:52:20.509Z,14.33
2023-02-18T16:54:50.021Z,12.27
2023-02-18T16:57:18.249Z,16.70
2023-02-18T16:59:45.703Z,11.67
2023-02-18T17:02:21.206Z,9.03
2023-02-18T17:04:54.275Z,15.00
2023-02-18T17:07:21.679Z,17.30
2023-02-18T17:10:14.552Z,15.87
2023-02-18T17:12:43.388Z,14.53
2023-02-18T17:18:00.859Z,13.87
2023-02-18T17:20:32.012Z,9.57
2023-02-18T17:22:59.650Z,14.77
2023-02-18T17:25:31.656Z,16.43
2023-02-18T17:27:59.115Z,14.83
2023-02-18T17:30:26.612Z,12.83
2023-02-18T17:33:19.369Z,13.30
2023-02-18T17:35:48.184Z,13.67
2023-02-18T17:41:17.938Z,9.63
2023-02-18T17:43:45.683Z,12.97
2023-02-18T17:46:14.399Z,13.93
2023-02-18T17:48:42.426Z,14.33
2023-02-18T17:51:15.199Z,17.93
2023-02-18T17:56:27.333Z,19.07
2023-02-18T17:58:54.750Z,13.00
2023-02-18T18:01:23.214Z,15.17
2023-02-18T18:03:50.871Z,10.27
2023-02-18T18:09:08.114Z,10.53
2023-02-18T18:14:35.721Z,11.53
2023-02-18T18:17:03.229Z,13.27
2023-02-18T18:19:31.817Z,12.37
2023-02-18T18:25:18.887Z,10.10
2023-02-18T18:30:50.837Z,14.10
2023-02-18T18:33:21.401Z,11.20
2023-02-18T18:35:51.650Z,12.97
2023-02-18T18:38:21.321Z,11.30
2023-02-18T18:43:40.163Z,13.13
2023-02-18T18:46:07.754Z,11.47
2023-02-18T18:48:35.307Z,14.73
2023-02-18T18:51:02.842Z,14.30
2023-02-18T18:53:32.382Z,11.50
2023-02-18T18:56:01.475Z,14.33
2023-02-18T19:01:29.213Z,17.13
2023-02-18T19:03:56.759Z,20.70
2023-02-18T19:06:24.247Z,11.37
2023-02-18T19:08:51.776Z,15.23
2023-02-18T19:14:07.687Z,12.30
2023-02-18T19:16:38.475Z,17.23
2023-02-18T19:19:05.981Z,15.80
2023-02-18T19:21:33.514Z,11.90
2023-02-18T19:24:00.995Z,15.80
2023-02-18T19:26:53.548Z,15.23
2023-02-18T19:29:23.276Z,16.03
2023-02-18T19:34:41.156Z,12.67
2023-02-18T19:37:08.666Z,12.13
2023-02-18T19:39:36.523Z,16.73
2023-02-18T19:44:45.218Z,15.80
2023-02-18T19:47:12.623Z,15.90
2023-02-18T19:49:41.425Z,15.23
2023-02-18T19:52:08.922Z,12.77
2023-02-18T19:54:39.689Z,16.73
2023-02-18T19:57:07.299Z,16.00
2023-02-18T19:59:36.166Z,16.63
2023-02-18T20:02:03.752Z,15.97
2023-02-18T20:04:31.360Z,19.63
2023-02-18T20:07:00.287Z,14.17
2023-02-18T20:09:27.866Z,13.40
2023-02-18T20:11:55.371Z,15.90
2023-02-18T20:14:23.847Z,15.57
2023-02-18T20:16:51.291Z,18.40
2023-02-18T20:19:20.392Z,16.77
2023-02-18T20:24:39.775Z,11.60
2023-02-18T20:27:07.911Z,10.37
2023-02-18T20:29:36.249Z,12.17
2023-02-18T20:35:07.838Z,14.47
2023-02-18T20:37:35.264Z,13.17
2023-02-18T20:42:53.185Z,16.50
2023-02-18T20:45:20.694Z,14.40
2023-02-18T20:50:47.657Z,15.57
2023-02-18T20:53:15.087Z,15.53
2023-02-18T20:55:47.044Z,15.07
2023-02-18T20:58:15.877Z,15.80
2023-02-18T21:00:43.370Z,19.77
2023-02-18T21:03:10.774Z,15.53
2023-02-18T21:05:38.188Z,18.20
2023-02-18T21:08:05.650Z,16.20
2023-02-18T21:10:33.051Z,15.73
2023-02-18T21:15:50.443Z,18.80
2023-02-18T21:18:18.506Z,20.17
2023-02-18T21:20:46.092Z,20.20
2023-02-18T21:23:14.074Z,15.90
2023-02-18T21:28:43.771Z,20.13
2023-02-18T21:31:17.632Z,22.87
2023-02-18T21:33:45.233Z,25.13
2023-02-18T21:36:14.225Z,22.97
2023-02-18T21:38:42.929Z,20.60
2023-02-18T21:41:10.598Z,18.67
2023-02-18T21:43:38.631Z,18.87
2023-02-18T21:46:07.782Z,18.50
2023-02-18T21:48:54.391Z,14.87
2023-02-18T21:51:35.835Z,18.87
2023-02-18T21:54:03.412Z,17.37
2023-02-18T21:59:34.870Z,22.23
2023-02-18T22:02:03.818Z,22.87
2023-02-18T22:04:34.136Z,22.13
2023-02-18T22:07:03.192Z,21.27
2023-02-18T22:12:19.701Z,24.20
2023-02-18T22:14:47.759Z,24.30
2023-02-18T22:17:16.466Z,24.63
2023-02-18T22:19:47.448Z,18.40
2023-02-18T22:22:14.904Z,25.53
2023-02-18T22:24:42.316Z,19.33
2023-02-18T22:27:09.782Z,21.80
2023-02-18T22:32:26.100Z,22.90
2023-02-18T22:34:55.399Z,26.33
2023-02-18T22:37:22.837Z,22.83
2023-02-18T22:39:50.548Z,25.40
2023-02-18T22:42:17.946Z,21.70
2023-02-18T22:47:47.686Z,24.03
2023-02-18T22:50:17.727Z,21.93
2023-02-18T22:55:47.655Z,17.17
2023-02-18T22:58:15.081Z,14.43
2023-02-18T23:00:42.519Z,20.53
2023-02-18T23:03:09.966Z,17.87
2023-02-18T23:05:38.788Z,22.27
2023-02-18T23:11:11.084Z,16.10
2023-02-18T23:13:39.124Z,17.40
2023-02-18T23:16:08.888Z,17.37
2023-02-18T23:18:36.834Z,19.80
2023-02-18T23:24:03.613Z,19.30
2023-02-18T23:26:31.221Z,19.57
2023-02-18T23:28:58.733Z,18.53
2023-02-18T23:31:27.587Z,19.20
2023-02-18T23:33:57.389Z,19.73
2023-02-18T23:36:26.690Z,22.30
2023-02-18T23:38:55.437Z,24.93
2023-02-18T23:41:24.908Z,20.57
2023-02-18T23:43:52.386Z,19.50
2023-02-18T23:49:08.787Z,19.63
2023-02-18T23:51:36.240Z,21.83
2023-02-18T23:54:04.341Z,18.90
2023-02-18T23:56:33.293Z,23.10
2023-02-18T23:59:02.599Z,21.57
